• Join FlightAware (Why Join?)
  • Login
  • US Flag 
06:29PM EDT


 

Airport Tracker/Info


-or-


 

Live Flight TrackerFlight Track Log ✈ N518QS ✈ 14-Jul-2013 ✈ PANC - ZSPD / PVG

Flight Track Log - Related Links

Times and Time Zones

All times are in EDT time to prevent confusion due to time zone crossing. See the N518QS flight status page for this flight to view local times or setup timezone preferences in your user account.

Time Position Orientation Groundspeed Altitude Reporting Facility
EDT Latitude Longitude Course Direction KTS MPH feet Rate Location/Type
07:29AM 61.1667 -150.2667 270° West 250 288 5,900  Level Anchorage Center
07:30AM 61.1833 -150.4333 282° West 290 334 8,700 2,460 Climbing Anchorage Center
07:31AM 61.2000 -150.6000 282° West 310 357 10,900 2,100 Climbing Anchorage Center
07:32AM 61.2000 -150.8000 270° West 360 414 13,000 2,460 Climbing Anchorage Center
07:33AM 61.2582 -151.5949 278° West  Level FlightAware Approximate
07:33AM 61.2167 -151.0000 280° West 370 426 15,900  Level Anchorage Center
07:34AM 61.2667 -151.8651 270° West  Level FlightAware Approximate
07:34AM 61.2333 -151.2167 279° West 390 449 17,800  Level Anchorage Center
07:35AM 61.2500 -151.4500 279° West 410 472 19,400 1,680 Climbing Anchorage Center
07:36AM 61.2667 -151.7000 278° West 430 495 21,200 1,800 Climbing Anchorage Center
07:37AM 61.2667 -151.9667 270° West 440 506 23,100 1,800 Climbing Anchorage Center
07:38AM 61.2833 -152.2833 276° West 460 529 24,900 1,680 Climbing Anchorage Center
07:39AM 61.2833 -152.5500 270° West 470 541 26,600 1,620 Climbing Anchorage Center
07:40AM 61.2833 -152.8333 270° West 480 552 28,200 1,440 Climbing Anchorage Center
07:41AM 61.2833 -153.1000 270° West 480 552 29,600 1,500 Climbing Anchorage Center
07:42AM 61.2833 -153.3833 270° West 490 564 31,300 1,860 Climbing Anchorage Center
07:43AM 61.2833 -153.6667 270° West 490 564 33,400 1,860 Climbing Anchorage Center
07:44AM 61.2667 -153.9500 263° West 470 541 35,100 1,380 Climbing Anchorage Center
07:45AM 61.2667 -154.2167 270° West 470 541 36,300 1,260 Climbing Anchorage Center
07:46AM 61.2667 -154.4833 270° West 460 529 37,700 1,320 Climbing Anchorage Center
07:47AM 61.2667 -154.7500 270° West 460 529 39,000 600 Climbing Anchorage Center
07:48AM 61.2667 -155.0167 270° West 460 529 39,000  Level Anchorage Center
07:49AM 61.2500 -155.3000 263° West 480 552 39,000  Level Anchorage Center
07:50AM 61.2500 -155.5667 270° West 470 541 39,000  Level Anchorage Center
07:51AM 61.2500 -155.8333 270° West 480 552 39,000  Level Anchorage Center
07:52AM 61.2333 -156.1667 264° West 470 541 39,000  Level Anchorage Center
07:53AM 61.2500 -156.4333 278° West 480 552 39,000  Level Anchorage Center
07:54AM 61.2500 -156.7000 270° West 470 541 39,000  Level Anchorage Center
07:55AM 61.2500 -156.9833 270° West 470 541 39,000  Level Anchorage Center
07:56AM 61.2500 -157.2500 270° West 470 541 39,000  Level Anchorage Center
07:57AM 61.2500 -157.5167 270° West 470 541 39,000  Level Anchorage Center
07:58AM 61.2500 -157.7833 270° West 460 529 39,000  Level Anchorage Center
07:59AM 61.2333 -158.0500 263° West 460 529 39,000  Level Anchorage Center
08:00AM 61.2333 -158.3167 270° West 460 529 39,000  Level Anchorage Center
08:01AM 61.2333 -158.6000 270° West 460 529 39,000  Level Anchorage Center
08:02AM 61.2333 -158.8667 270° West 460 529 39,000  Level Anchorage Center
08:03AM 61.2333 -159.1500 270° West 470 541 39,000  Level Anchorage Center
08:04AM 61.2167 -159.4000 262° West 460 529 39,000  Level Anchorage Center
08:05AM 61.2167 -159.6667 270° West 460 529 39,000  Level Anchorage Center
08:06AM 61.2167 -159.9333 270° West 450 518 39,000  Level Anchorage Center
08:07AM 61.2000 -160.2000 263° West 460 529 39,000  Level Anchorage Center
08:08AM 61.2000 -160.4667 270° West 460 529 39,000  Level Anchorage Center
08:09AM 61.1833 -160.7167 262° West 440 506 39,000  Level Anchorage Center
08:10AM 61.1833 -160.9833 270° West 440 506 39,000  Level Anchorage Center
08:11AM 61.1833 -161.2333 270° West 450 518 39,000  Level Anchorage Center
08:12AM 61.1667 -161.5167 263° West 470 541 39,000  Level Anchorage Center
08:13AM 61.1500 -161.7667 262° West 460 529 39,000  Level Anchorage Center
08:14AM 61.1500 -162.0333 270° West 450 518 39,000  Level Anchorage Center
08:15AM 61.1333 -162.3000 263° West 460 529 39,000  Level Anchorage Center
08:16AM 61.1333 -162.5667 270° West 470 541 39,000  Level Anchorage Center
08:17AM 61.1167 -162.8333 263° West 450 518 39,000  Level Anchorage Center
08:18AM 61.1000 -163.1000 263° West 450 518 39,000  Level Anchorage Center
08:19AM 61.0500 -163.3500 248° West 460 529 39,000  Level Anchorage Center
08:20AM 61.0167 -163.6167 256° West 470 541 39,000  Level Anchorage Center
08:21AM 60.9833 -163.8667 255° West 460 529 39,000  Level Anchorage Center
08:22AM 60.9500 -164.1333 256° West 460 529 39,000  Level Anchorage Center
08:23AM 60.9000 -164.3833 248° West 460 529 39,000  Level Anchorage Center
08:24AM 60.8667 -164.6333 255° West 450 518 39,000  Level Anchorage Center
08:25AM 60.8333 -164.8833 255° West 450 518 39,000  Level Anchorage Center
08:26AM 60.8167 -165.1333 262° West 460 529 39,000  Level Anchorage Center
08:27AM 60.8167 -165.3500 270° West 460 529 39,000  Level Anchorage Center
08:28AM 60.8000 -165.6167 263° West 460 529 39,000  Level Anchorage Center
08:29AM 60.8000 -165.8833 270° West 460 529 39,000  Level Anchorage Center
08:30AM 60.8000 -166.1500 270° West 460 529 39,000  Level Anchorage Center
08:31AM 60.8000 -166.4167 270° West 460 529 39,000  Level Anchorage Center
08:32AM 60.7833 -166.6833 263° West 470 541 39,000  Level Anchorage Center
08:33AM 60.7833 -166.9667 270° West 470 541 39,100 120 Climbing Anchorage Center
08:34AM 60.7833 -167.2333 270° West 470 541 39,300 180 Climbing Anchorage Center
08:35AM 60.7667 -167.5000 263° West 470 541 39,500 180 Climbing Anchorage Center
08:36AM 60.7667 -167.7667 270° West 470 541 39,700 240 Climbing Anchorage Center
08:37AM 60.7500 -168.0167 262° West 460 529 40,000 120 Climbing Anchorage Center
08:38AM 60.7500 -168.2833 270° West 450 518 40,000  Level Anchorage Center
08:39AM 60.7333 -168.5500 263° West 450 518 40,000  Level Anchorage Center
08:40AM 60.7333 -168.8000 270° West 450 518 40,000  Level Anchorage Center
08:41AM 60.7167 -169.0667 263° West 460 529 40,000  Level Anchorage Center
08:42AM 60.7167 -169.3333 270° West 460 529 40,000  Level Anchorage Center
08:43AM 60.7000 -169.5833 262° West 460 529 40,000  Level Anchorage Center
08:44AM 60.6833 -169.8500 263° West 460 529 40,000  Level Anchorage Center
08:45AM 60.6667 -170.1167 263° West 460 529 40,000  Level Anchorage Center
08:46AM 60.6667 -170.3667 270° West 460 529 40,000  Level Anchorage Center
08:47AM 60.6500 -170.6333 263° West 460 529 40,000  Level Anchorage Center
08:48AM 60.6333 -170.9000 263° West 470 541 40,000  Level Anchorage Center
08:49AM 60.6333 -171.1000 270° West 460 529 40,000  Level Anchorage Center
08:50AM 60.6167 -171.4167 264° West 460 529 40,000  Level Anchorage Center
08:51AM 60.6000 -171.6333 261° West 470 541 40,000  Level Anchorage Center
08:52AM 60.5833 -171.9000 263° West 460 529 40,000  Level Anchorage Center
08:53AM 60.5667 -172.2167 264° West 470 541 40,000  Level Anchorage Center
08:54AM 60.5500 -172.4333 261° West 460 529 40,000  Level Anchorage Center
08:55AM 60.5500 -172.6833 270° West 460 529 40,000  Level Anchorage Center
08:56AM 60.5333 -172.9500 263° West 460 529 40,000  Level Anchorage Center
08:57AM 60.5167 -173.2000 262° West 460 529 40,000  Level Anchorage Center
08:58AM 60.5000 -173.5333 264° West 470 541 40,000  Level Anchorage Center
08:59AM 60.4833 -173.7833 262° West 460 529 40,000  Level Anchorage Center
09:00AM 60.4667 -174.0500 263° West 460 529 40,000  Level Anchorage Center
09:01AM 60.4500 -174.3167 263° West 470 541 40,000  Level Anchorage Center
09:02AM 60.4500 -174.5667 270° West 460 529 40,000  Level Anchorage Center
09:03AM 60.4333 -174.7833 261° West 470 541 40,000  Level Anchorage Center
09:04AM 60.4000 -175.1000 258° West 480 552 40,000  Level Anchorage Center
09:05AM 60.3833 -175.3167 261° West 470 541 40,000  Level Anchorage Center
09:07AM 60.3517 -175.7705 262° West  Level FlightAware Approximate
09:14AM 60.2129 -177.5429 262° West  Level FlightAware Approximate
09:15AM 60.1911 -177.7948 260° West  Level FlightAware Approximate
09:16AM 60.1597 -178.0420 253° West  Level FlightAware Approximate
09:17AM 60.1228 -178.2863 253° West  Level FlightAware Approximate
09:18AM 60.0856 -178.5300 253° West  Level FlightAware Approximate
09:19AM 60.0478 -178.7732 253° West  Level FlightAware Approximate
09:20AM 60.0097 -179.0158 253° West  Level FlightAware Approximate
09:21AM 59.9710 -179.2579 252° West  Level FlightAware Approximate
09:22AM 59.9320 -179.4993 252° West  Level FlightAware Approximate
09:23AM 59.8925 -179.7402 252° West  Level FlightAware Approximate
09:24AM 59.8525 -179.9806 252° West  Level FlightAware Approximate
09:25AM 59.8122 179.7796 252° West  Level FlightAware Approximate
09:26AM 59.7713 179.5405 251° West  Level FlightAware Approximate
09:27AM 59.7291 179.3026 250° West  Level FlightAware Approximate
09:28AM 59.6855 179.0660 250° West  Level FlightAware Approximate
09:29AM 59.6413 178.8300 250° West  Level FlightAware Approximate
09:30AM 59.5968 178.5945 250° West  Level FlightAware Approximate
09:31AM 59.5518 178.3596 249° West  Level FlightAware Approximate
09:32AM 59.5064 178.1254 249° West  Level FlightAware Approximate
09:33AM 59.4606 177.8917 249° West  Level FlightAware Approximate
09:34AM 59.4143 177.6587 249° West  Level FlightAware Approximate
09:35AM 59.3677 177.4264 249° West  Level FlightAware Approximate
09:36AM 59.3206 177.1947 248° West  Level FlightAware Approximate
09:37AM 59.2732 176.9636 248° West  Level FlightAware Approximate
09:38AM 59.2253 176.7331 248° West  Level FlightAware Approximate
09:39AM 59.1772 176.5033 248° West  Level FlightAware Approximate
09:40AM 59.1296 176.2732 248° West  Level FlightAware Approximate
09:41AM 59.0817 176.0438 248° West  Level FlightAware Approximate
09:42AM 59.0333 175.8150 248° West  Level FlightAware Approximate
09:43AM 58.9846 175.5869 248° West  Level FlightAware Approximate
09:44AM 58.9354 175.3594 247° West  Level FlightAware Approximate
09:45AM 58.8859 175.1326 247° West  Level FlightAware Approximate
09:46AM 58.8359 174.9064 247° West  Level FlightAware Approximate
09:47AM 58.7856 174.6809 247° West  Level FlightAware Approximate
09:48AM 58.7349 174.4560 247° West  Level FlightAware Approximate
09:49AM 58.6838 174.2318 246° West  Level FlightAware Approximate
09:50AM 58.6322 174.0083 246° West  Level FlightAware Approximate
09:51AM 58.5803 173.7854 246° West  Level FlightAware Approximate
09:52AM 58.5281 173.5631 246° West  Level FlightAware Approximate
09:53AM 58.4754 173.3416 246° West  Level FlightAware Approximate
09:54AM 58.4224 173.1207 245° Southwest  Level FlightAware Approximate
09:55AM 58.3689 172.9005 245° Southwest  Level FlightAware Approximate
09:56AM 58.3151 172.6809 245° Southwest  Level FlightAware Approximate
09:57AM 58.2610 172.4620 245° Southwest  Level FlightAware Approximate
09:58AM 58.2064 172.2438 245° Southwest  Level FlightAware Approximate
09:59AM 58.1515 172.0262 245° Southwest  Level FlightAware Approximate
10:00AM 58.0962 171.8094 244° Southwest  Level FlightAware Approximate
10:01AM 58.0405 171.5932 244° Southwest  Level FlightAware Approximate
10:02AM 57.9845 171.3776 244° Southwest  Level FlightAware Approximate
10:03AM 57.9281 171.1628 244° Southwest  Level FlightAware Approximate
10:04AM 57.8714 170.9486 244° Southwest  Level FlightAware Approximate
10:05AM 57.8143 170.7351 243° Southwest  Level FlightAware Approximate
10:06AM 57.7568 170.5222 243° Southwest  Level FlightAware Approximate
10:07AM 57.6990 170.3101 243° Southwest  Level FlightAware Approximate
10:08AM 57.6408 170.0986 243° Southwest  Level FlightAware Approximate
10:09AM 57.5823 169.8878 243° Southwest  Level FlightAware Approximate
10:10AM 57.5234 169.6777 243° Southwest  Level FlightAware Approximate
10:11AM 57.4642 169.4683 242° Southwest  Level FlightAware Approximate
10:12AM 57.4047 169.2596 242° Southwest  Level FlightAware Approximate
10:13AM 57.3447 169.0515 242° Southwest  Level FlightAware Approximate
10:14AM 57.2845 168.8441 242° Southwest  Level FlightAware Approximate
10:15AM 57.2239 168.6374 242° Southwest  Level FlightAware Approximate
10:16AM 57.1633 168.4310 242° Southwest  Level FlightAware Approximate
10:17AM 57.1031 168.2246 242° Southwest  Level FlightAware Approximate
10:18AM 57.0425 168.0188 242° Southwest  Level FlightAware Approximate
10:19AM 56.9816 167.8138 241° Southwest  Level FlightAware Approximate
10:20AM 56.9204 167.6094 241° Southwest  Level FlightAware Approximate
10:21AM 56.8588 167.4057 241° Southwest  Level FlightAware Approximate
10:22AM 56.7969 167.2027 241° Southwest  Level FlightAware Approximate
10:23AM 56.7341 167.0009 239° Southwest  Level FlightAware Approximate
10:24AM 56.6692 166.8017 239° Southwest  Level FlightAware Approximate
10:25AM 56.6040 166.6031 239° Southwest  Level FlightAware Approximate
10:26AM 56.5385 166.4053 239° Southwest  Level FlightAware Approximate
10:27AM 56.4726 166.2081 239° Southwest  Level FlightAware Approximate
10:28AM 56.4065 166.0116 239° Southwest  Level FlightAware Approximate
10:29AM 56.3400 165.8158 239° Southwest  Level FlightAware Approximate
10:30AM 56.2734 165.6205 239° Southwest  Level FlightAware Approximate
10:31AM 56.2073 165.4250 239° Southwest  Level FlightAware Approximate
10:32AM 56.1409 165.2301 239° Southwest  Level FlightAware Approximate
10:33AM 56.0742 165.0360 238° Southwest  Level FlightAware Approximate
10:34AM 56.0072 164.8425 238° Southwest  Level FlightAware Approximate
10:35AM 55.9399 164.6496 238° Southwest  Level FlightAware Approximate
10:36AM 55.8723 164.4575 238° Southwest  Level FlightAware Approximate
10:37AM 55.8044 164.2660 238° Southwest  Level FlightAware Approximate
10:38AM 55.7361 164.0752 238° Southwest  Level FlightAware Approximate
10:39AM 55.6676 163.8850 237° Southwest  Level FlightAware Approximate
10:40AM 55.5989 163.6956 237° Southwest  Level FlightAware Approximate
10:41AM 55.5298 163.5067 237° Southwest  Level FlightAware Approximate
10:42AM 55.4604 163.3186 237° Southwest  Level FlightAware Approximate
10:43AM 55.3907 163.1311 237° Southwest  Level FlightAware Approximate
10:44AM 55.3208 162.9442 237° Southwest  Level FlightAware Approximate
10:45AM 55.2559 162.7522 240° Southwest  Level FlightAware Approximate
10:46AM 55.1911 162.5603 239° Southwest  Level FlightAware Approximate
10:47AM 55.1260 162.3691 239° Southwest  Level FlightAware Approximate
10:48AM 55.0606 162.1785 239° Southwest  Level FlightAware Approximate
10:49AM 54.9949 161.9885 239° Southwest  Level FlightAware Approximate
10:50AM 54.9288 161.7992 239° Southwest  Level FlightAware Approximate
10:51AM 54.8625 161.6105 239° Southwest  Level FlightAware Approximate
10:52AM 54.7960 161.4224 239° Southwest  Level FlightAware Approximate
10:53AM 54.7291 161.2349 238° Southwest  Level FlightAware Approximate
10:54AM 54.6619 161.0480 238° Southwest  Level FlightAware Approximate
10:55AM 54.5944 160.8618 238° Southwest  Level FlightAware Approximate
10:56AM 54.5267 160.6762 238° Southwest  Level FlightAware Approximate
10:57AM 54.4587 160.4912 238° Southwest  Level FlightAware Approximate
10:58AM 54.3904 160.3068 238° Southwest  Level FlightAware Approximate
10:59AM 54.3218 160.1230 237° Southwest  Level FlightAware Approximate
11:00AM 54.2529 159.9398 237° Southwest  Level FlightAware Approximate
11:01AM 54.1840 159.7570 237° Southwest  Level FlightAware Approximate
11:02AM 54.1154 159.5742 237° Southwest  Level FlightAware Approximate
11:03AM 54.0465 159.3919 237° Southwest  Level FlightAware Approximate
11:04AM 53.9774 159.2103 237° Southwest  Level FlightAware Approximate
11:05AM 53.9080 159.0292 237° Southwest  Level FlightAware Approximate
11:06AM 53.8383 158.8487 237° Southwest  Level FlightAware Approximate
11:07AM 53.7685 158.6688 237° Southwest  Level FlightAware Approximate
11:08AM 53.6984 158.4893 237° Southwest  Level FlightAware Approximate
11:09AM 53.6281 158.3105 237° Southwest  Level FlightAware Approximate
11:10AM 53.5575 158.1323 236° Southwest  Level FlightAware Approximate
11:11AM 53.4867 157.9546 236° Southwest  Level FlightAware Approximate
11:12AM 53.4156 157.7776 236° Southwest  Level FlightAware Approximate
11:13AM 53.3442 157.6011 236° Southwest  Level FlightAware Approximate
11:14AM 53.2733 157.4244 236° Southwest  Level FlightAware Approximate
11:15AM 53.2025 157.2479 236° Southwest  Level FlightAware Approximate
11:16AM 53.1314 157.0719 236° Southwest  Level FlightAware Approximate
11:17AM 53.0602 156.8965 236° Southwest  Level FlightAware Approximate
11:18AM 52.9886 156.7217 236° Southwest  Level FlightAware Approximate
11:19AM 52.9168 156.5475 236° Southwest  Level FlightAware Approximate
11:20AM 52.8447 156.3739 236° Southwest  Level FlightAware Approximate
11:21AM 52.7692 156.2048 231° Southwest  Level FlightAware Approximate
11:22AM 52.6884 156.0427 231° Southwest  Level FlightAware Approximate
11:23AM 52.6072 155.8814 230° Southwest  Level FlightAware Approximate
11:24AM 52.5253 155.7213 230° Southwest  Level FlightAware Approximate
11:25AM 52.4432 155.5617 230° Southwest  Level FlightAware Approximate
11:26AM 52.3609 155.4028 230° Southwest  Level FlightAware Approximate
11:27AM 52.2784 155.2445 230° Southwest  Level FlightAware Approximate
11:28AM 52.1957 155.0867 229° Southwest  Level FlightAware Approximate
11:29AM 52.1124 154.9301 229° Southwest  Level FlightAware Approximate
11:30AM 52.0284 154.7748 229° Southwest  Level FlightAware Approximate
11:31AM 51.9442 154.6200 229° Southwest  Level FlightAware Approximate
11:32AM 51.8598 154.4659 228° Southwest  Level FlightAware Approximate
11:33AM 51.7752 154.3123 228° Southwest  Level FlightAware Approximate
11:34AM 51.6903 154.1592 228° Southwest  Level FlightAware Approximate
11:35AM 51.6052 154.0070 228° Southwest  Level FlightAware Approximate
11:36AM 51.5198 153.8554 228° Southwest  Level FlightAware Approximate
11:37AM 51.4342 153.7043 228° Southwest  Level FlightAware Approximate
11:38AM 51.3485 153.5538 228° Southwest  Level FlightAware Approximate
11:39AM 51.2625 153.4039 228° Southwest  Level FlightAware Approximate
11:40AM 51.1764 153.2545 228° Southwest  Level FlightAware Approximate
11:41AM 51.0907 153.1048 228° Southwest  Level FlightAware Approximate
11:42AM 51.0047 152.9557 228° Southwest  Level FlightAware Approximate
11:43AM 50.9186 152.8071 227° Southwest  Level FlightAware Approximate
11:44AM 50.8323 152.6590 227° Southwest  Level FlightAware Approximate
11:45AM 50.7459 152.5115 227° Southwest  Level FlightAware Approximate
11:46AM 50.6592 152.3646 227° Southwest  Level FlightAware Approximate
11:47AM 50.5723 152.2182 227° Southwest  Level FlightAware Approximate
11:48AM 50.4853 152.0723 227° Southwest  Level FlightAware Approximate
11:49AM 50.3981 151.9270 227° Southwest  Level FlightAware Approximate
11:50AM 50.3107 151.7822 227° Southwest  Level FlightAware Approximate
11:51AM 50.2231 151.6379 227° Southwest  Level FlightAware Approximate
11:52AM 50.1350 151.4946 226° Southwest  Level FlightAware Approximate
11:53AM 50.0467 151.3521 226° Southwest  Level FlightAware Approximate
11:54AM 49.9581 151.2100 226° Southwest  Level FlightAware Approximate
11:55AM 49.8694 151.0685 226° Southwest  Level FlightAware Approximate
11:56AM 49.7805 150.9275 226° Southwest  Level FlightAware Approximate
11:57AM 49.6915 150.7870 226° Southwest  Level FlightAware Approximate
11:58AM 49.6023 150.6470 226° Southwest  Level FlightAware Approximate
11:59AM 49.5129 150.5076 225° Southwest  Level FlightAware Approximate
12:00PM 49.4233 150.3686 225° Southwest  Level FlightAware Approximate
12:01PM 49.3336 150.2302 225° Southwest  Level FlightAware Approximate
12:02PM 49.2437 150.0923 225° Southwest  Level FlightAware Approximate
12:03PM 49.1539 149.9546 225° Southwest  Level FlightAware Approximate
12:04PM 49.0642 149.8168 225° Southwest  Level FlightAware Approximate
12:05PM 48.9743 149.6796 225° Southwest  Level FlightAware Approximate
12:06PM 48.8843 149.5428 225° Southwest  Level FlightAware Approximate
12:07PM 48.7941 149.4066 225° Southwest  Level FlightAware Approximate
12:08PM 48.7038 149.2708 225° Southwest  Level FlightAware Approximate
12:09PM 48.6133 149.1355 225° Southwest  Level FlightAware Approximate
12:10PM 48.5227 149.0007 225° Southwest  Level FlightAware Approximate
12:11PM 48.4319 148.8664 224° Southwest  Level FlightAware Approximate
12:12PM 48.3409 148.7326 224° Southwest  Level FlightAware Approximate
12:13PM 48.2498 148.5992 224° Southwest  Level FlightAware Approximate
12:14PM 48.1585 148.4663 224° Southwest  Level FlightAware Approximate
12:15PM 48.0671 148.3339 224° Southwest  Level FlightAware Approximate
12:16PM 47.9748 148.2031 224° Southwest  Level FlightAware Approximate
12:17PM 47.8823 148.0728 223° Southwest  Level FlightAware Approximate
12:18PM 47.7897 147.9429 223° Southwest  Level FlightAware Approximate
12:19PM 47.6970 147.8135 223° Southwest  Level FlightAware Approximate
12:20PM 47.6041 147.6845 223° Southwest  Level FlightAware Approximate
12:21PM 47.5111 147.5560 223° Southwest  Level FlightAware Approximate
12:22PM 47.4179 147.4280 223° Southwest  Level FlightAware Approximate
12:23PM 47.3246 147.3004 223° Southwest  Level FlightAware Approximate
12:24PM 47.2312 147.1732 223° Southwest  Level FlightAware Approximate
12:25PM 47.1376 147.0465 223° Southwest  Level FlightAware Approximate
12:26PM 47.0438 146.9203 223° Southwest  Level FlightAware Approximate
12:27PM 46.9500 146.7945 222° Southwest  Level FlightAware Approximate
12:28PM 46.8563 146.6686 223° Southwest  Level FlightAware Approximate
12:29PM 46.7626 146.5430 223° Southwest  Level FlightAware Approximate
12:30PM 46.6688 146.4177 223° Southwest  Level FlightAware Approximate
12:31PM 46.5748 146.2929 222° Southwest  Level FlightAware Approximate
12:32PM 46.4808 146.1685 222° Southwest  Level FlightAware Approximate
12:33PM 46.3865 146.0446 222° Southwest  Level FlightAware Approximate
12:34PM 46.2922 145.9211 222° Southwest  Level FlightAware Approximate
12:35PM 46.1977 145.7980 222° Southwest  Level FlightAware Approximate
12:36PM 46.1031 145.6753 222° Southwest  Level FlightAware Approximate
12:37PM 46.0084 145.5530 222° Southwest  Level FlightAware Approximate
12:38PM 45.9135 145.4312 222° Southwest  Level FlightAware Approximate
12:39PM 45.8185 145.3098 222° Southwest  Level FlightAware Approximate
12:40PM 45.7234 145.1888 222° Southwest  Level FlightAware Approximate
12:41PM 45.6281 145.0682 222° Southwest  Level FlightAware Approximate
12:42PM 45.5327 144.9480 221° Southwest  Level FlightAware Approximate
12:43PM 45.4372 144.8282 221° Southwest  Level FlightAware Approximate
12:44PM 45.3415 144.7089 221° Southwest  Level FlightAware Approximate
12:45PM 45.2458 144.5899 221° Southwest  Level FlightAware Approximate
12:46PM 45.1499 144.4713 221° Southwest  Level FlightAware Approximate
12:47PM 45.0539 144.3532 221° Southwest  Level FlightAware Approximate
12:48PM 44.9586 144.2341 223° Southwest  Level FlightAware Approximate
12:49PM 44.8653 144.1120 223° Southwest  Level FlightAware Approximate
12:50PM 44.7720 143.9903 223° Southwest  Level FlightAware Approximate
12:51PM 44.6785 143.8689 223° Southwest  Level FlightAware Approximate
12:52PM 44.5849 143.7480 223° Southwest  Level FlightAware Approximate
12:53PM 44.4911 143.6274 223° Southwest  Level FlightAware Approximate
12:54PM 44.3972 143.5072 222° Southwest  Level FlightAware Approximate
12:55PM 44.3032 143.3874 222° Southwest  Level FlightAware Approximate
12:56PM 44.2038 143.2767 218° Southwest  Level FlightAware Approximate
12:57PM 44.1041 143.1667 218° Southwest  Level FlightAware Approximate
12:58PM 44.0043 143.0570 218° Southwest  Level FlightAware Approximate
12:59PM 43.9044 142.9477 218° Southwest  Level FlightAware Approximate
01:00PM 43.8043 142.8388 218° Southwest  Level FlightAware Approximate
01:01PM 43.7042 142.7303 218° Southwest  Level FlightAware Approximate
01:02PM 43.6040 142.6221 218° Southwest  Level FlightAware Approximate
01:03PM 43.5037 142.5142 218° Southwest  Level FlightAware Approximate
01:04PM 43.4032 142.4068 218° Southwest  Level FlightAware Approximate
01:05PM 43.3018 142.3012 216° Southwest  Level FlightAware Approximate
01:06PM 43.1994 142.1978 216° Southwest  Level FlightAware Approximate
01:07PM 43.0968 142.0947 216° Southwest  Level FlightAware Approximate
01:08PM 42.9942 141.9919 216° Southwest  Level FlightAware Approximate
01:09PM 42.8915 141.8895 216° Southwest  Level FlightAware Approximate
01:10PM 42.7886 141.7874 216° Southwest  Level FlightAware Approximate
01:11PM 42.6857 141.6857 216° Southwest  Level FlightAware Approximate
01:12PM 42.5835 141.5829 217° Southwest  Level FlightAware Approximate
01:13PM 42.4811 141.4805 216° Southwest  Level FlightAware Approximate
01:14PM 42.3787 141.3783 216° Southwest  Level FlightAware Approximate
01:15PM 42.2746 141.2797 213° Southwest  Level FlightAware Approximate
01:16PM 42.1679 141.1862 213° Southwest  Level FlightAware Approximate
01:17PM 42.0611 141.0930 213° Southwest  Level FlightAware Approximate
01:18PM 41.9572 140.9943 215° Southwest  Level FlightAware Approximate
01:19PM 41.8528 140.8968 215° Southwest  Level FlightAware Approximate
01:20PM 41.7519 140.7942 229° Southwest  Level FlightAware Approximate
01:21PM 41.6680 140.6662 229° Southwest  Level FlightAware Approximate
01:22PM 41.5839 140.5386 229° Southwest  Level FlightAware Approximate
01:23PM 41.4996 140.4113 229° Southwest  Level FlightAware Approximate
01:24PM 41.4152 140.2843 228° Southwest  Level FlightAware Approximate
01:25PM 41.3307 140.1577 228° Southwest  Level FlightAware Approximate
01:26PM 41.2461 140.0314 228° Southwest  Level FlightAware Approximate
01:27PM 41.1613 139.9054 228° Southwest  Level FlightAware Approximate
01:28PM 41.0763 139.7798 228° Southwest  Level FlightAware Approximate
01:29PM 40.9913 139.6545 228° Southwest  Level FlightAware Approximate
01:30PM 40.9061 139.5295 228° Southwest  Level FlightAware Approximate
01:31PM 40.8207 139.4048 228° Southwest  Level FlightAware Approximate
01:32PM 40.7352 139.2804 228° Southwest  Level FlightAware Approximate
01:33PM 40.6496 139.1564 228° Southwest  Level FlightAware Approximate
01:34PM 40.5639 139.0327 228° Southwest  Level FlightAware Approximate
01:35PM 40.4780 138.9093 228° Southwest  Level FlightAware Approximate
01:36PM 40.3920 138.7862 227° Southwest  Level FlightAware Approximate
01:37PM 40.3045 138.6650 226° Southwest  Level FlightAware Approximate
01:38PM 40.2164 138.5449 226° Southwest  Level FlightAware Approximate
01:39PM 40.1297 138.4231 228° Southwest  Level FlightAware Approximate
01:40PM 40.0440 138.3004 228° Southwest  Level FlightAware Approximate
01:41PM 39.9581 138.1779 228° Southwest  Level FlightAware Approximate
01:42PM 39.8720 138.0558 227° Southwest  Level FlightAware Approximate
01:43PM 39.7859 137.9340 227° Southwest  Level FlightAware Approximate
01:44PM 39.6996 137.8125 227° Southwest  Level FlightAware Approximate
01:45PM 39.6132 137.6913 227° Southwest  Level FlightAware Approximate
01:46PM 39.5266 137.5704 227° Southwest  Level FlightAware Approximate
01:47PM 39.4399 137.4499 227° Southwest  Level FlightAware Approximate
01:48PM 39.3531 137.3296 227° Southwest  Level FlightAware Approximate
01:49PM 39.2662 137.2097 227° Southwest  Level FlightAware Approximate
01:50PM 39.1791 137.0900 227° Southwest  Level FlightAware Approximate
01:51PM 39.0919 136.9707 227° Southwest  Level FlightAware Approximate
01:52PM 39.0046 136.8516 227° Southwest  Level FlightAware Approximate
01:53PM 38.9169 136.7332 226° Southwest  Level FlightAware Approximate
01:54PM 38.8288 136.6153 226° Southwest  Level FlightAware Approximate
01:55PM 38.7406 136.4978 226° Southwest  Level FlightAware Approximate
01:56PM 38.6523 136.3805 226° Southwest  Level FlightAware Approximate
01:57PM 38.5639 136.2635 226° Southwest  Level FlightAware Approximate
01:58PM 38.4754 136.1468 226° Southwest  Level FlightAware Approximate
01:59PM 38.3867 136.0304 226° Southwest  Level FlightAware Approximate
02:00PM 38.2980 135.9143 226° Southwest  Level FlightAware Approximate
02:01PM 38.2091 135.7984 226° Southwest  Level FlightAware Approximate
02:02PM 38.1201 135.6829 226° Southwest  Level FlightAware Approximate
02:03PM 38.0310 135.5676 226° Southwest  Level FlightAware Approximate
02:04PM 37.9418 135.4526 225° Southwest  Level FlightAware Approximate
02:05PM 37.8525 135.3379 225° Southwest  Level FlightAware Approximate
02:06PM 37.7630 135.2235 225° Southwest  Level FlightAware Approximate
02:07PM 37.6735 135.1093 225° Southwest  Level FlightAware Approximate
02:08PM 37.5838 134.9954 225° Southwest  Level FlightAware Approximate
02:09PM 37.4940 134.8818 225° Southwest  Level FlightAware Approximate
02:10PM 37.4041 134.7685 225° Southwest  Level FlightAware Approximate
02:11PM 37.3142 134.6554 225° Southwest  Level FlightAware Approximate
02:12PM 37.2241 134.5426 225° Southwest  Level FlightAware Approximate
02:13PM 37.1337 134.4303 225° Southwest  Level FlightAware Approximate
02:14PM 37.0432 134.3183 225° Southwest  Level FlightAware Approximate
02:15PM 36.9526 134.2065 225° Southwest  Level FlightAware Approximate
02:16PM 36.8619 134.0951 225° Southwest  Level FlightAware Approximate
02:17PM 36.7711 133.9839 224° Southwest  Level FlightAware Approximate
02:18PM 36.6802 133.8729 224° Southwest  Level FlightAware Approximate
02:19PM 36.5891 133.7622 224° Southwest  Level FlightAware Approximate
02:20PM 36.4980 133.6518 224° Southwest  Level FlightAware Approximate
02:21PM 36.4068 133.5416 224° Southwest  Level FlightAware Approximate
02:22PM 36.3155 133.4317 224° Southwest  Level FlightAware Approximate
02:23PM 36.2241 133.3221 224° Southwest  Level FlightAware Approximate
02:24PM 36.1325 133.2127 224° Southwest  Level FlightAware Approximate
02:25PM 36.0409 133.1035 224° Southwest  Level FlightAware Approximate
02:26PM 35.9492 132.9946 224° Southwest  Level FlightAware Approximate
02:27PM 35.8574 132.8860 224° Southwest  Level FlightAware Approximate
02:28PM 35.7655 132.7776 224° Southwest  Level FlightAware Approximate
02:29PM 35.6734 132.6695 224° Southwest  Level FlightAware Approximate
02:30PM 35.5813 132.5616 224° Southwest  Level FlightAware Approximate
02:31PM 35.4895 132.4535 226° Southwest  Level FlightAware Approximate
02:32PM 35.4004 132.3421 226° Southwest  Level FlightAware Approximate
02:33PM 35.3094 132.2332 224° Southwest  Level FlightAware Approximate
02:34PM 35.2172 132.1259 224° Southwest  Level FlightAware Approximate
02:35PM 35.1250 132.0188 224° Southwest  Level FlightAware Approximate
02:36PM 35.0326 131.9120 223° Southwest  Level FlightAware Approximate
02:37PM 34.9401 131.8054 223° Southwest  Level FlightAware Approximate
02:38PM 34.8476 131.6991 223° Southwest  Level FlightAware Approximate
02:39PM 34.7549 131.5930 223° Southwest  Level FlightAware Approximate
02:40PM 34.6622 131.4871 223° Southwest  Level FlightAware Approximate
02:41PM 34.5694 131.3815 223° Southwest  Level FlightAware Approximate
02:42PM 34.4765 131.2761 223° Southwest  Level FlightAware Approximate
02:43PM 34.3834 131.1709 223° Southwest  Level FlightAware Approximate
02:44PM 34.2903 131.0660 223° Southwest  Level FlightAware Approximate
02:45PM 34.1972 130.9613 223° Southwest  Level FlightAware Approximate
02:46PM 34.1039 130.8568 223° Southwest  Level FlightAware Approximate
02:47PM 34.0105 130.7526 223° Southwest  Level FlightAware Approximate
02:48PM 33.9168 130.6490 222° Southwest  Level FlightAware Approximate
02:49PM 33.8215 130.5475 222° Southwest  Level FlightAware Approximate
02:50PM 33.7261 130.4463 221° Southwest  Level FlightAware Approximate
02:51PM 33.6380 130.3372 233° Southwest  Level FlightAware Approximate
02:52PM 33.5619 130.2149 233° Southwest  Level FlightAware Approximate
02:53PM 33.4856 130.0928 233° Southwest  Level FlightAware Approximate
02:54PM 33.4092 129.9709 233° Southwest  Level FlightAware Approximate
02:55PM 33.3327 129.8493 233° Southwest  Level FlightAware Approximate
02:56PM 33.2561 129.7278 233° Southwest  Level FlightAware Approximate
02:57PM 33.1794 129.6066 233° Southwest  Level FlightAware Approximate
02:58PM 33.1025 129.4856 233° Southwest  Level FlightAware Approximate
02:59PM 33.0256 129.3648 233° Southwest  Level FlightAware Approximate
03:00PM 32.9485 129.2442 233° Southwest  Level FlightAware Approximate
03:01PM 32.8713 129.1238 233° Southwest  Level FlightAware Approximate
03:02PM 32.7826 129.0154 235° Southwest  Level FlightAware Approximate
03:03PM 32.7102 128.8911 235° Southwest  Level FlightAware Approximate
03:04PM 32.6540 128.7581 256° West  Level FlightAware Approximate
03:05PM 32.6222 128.6119 256° West  Level FlightAware Approximate
03:06PM 32.5902 128.4658 255° West  Level FlightAware Approximate
03:07PM 32.5581 128.3198 255° West  Level FlightAware Approximate
03:08PM 32.5258 128.1739 255° West  Level FlightAware Approximate
03:09PM 32.4933 128.0280 255° West  Level FlightAware Approximate
03:10PM 32.4607 127.8823 255° West  Level FlightAware Approximate
03:11PM 32.4279 127.7367 255° West  Level FlightAware Approximate
03:12PM 32.3949 127.5913 255° West  Level FlightAware Approximate
03:13PM 32.3618 127.4459 255° West  Level FlightAware Approximate
03:14PM 32.3284 127.3006 255° West  Level FlightAware Approximate
03:15PM 32.2950 127.1554 255° West  Level FlightAware Approximate
03:16PM 32.2617 127.0102 256° West  Level FlightAware Approximate
03:17PM 32.2301 126.8646 256° West  Level FlightAware Approximate
03:18PM 32.1984 126.7190 256° West  Level FlightAware Approximate
03:19PM 32.1665 126.5735 255° West  Level FlightAware Approximate
03:20PM 32.1344 126.4282 255° West  Level FlightAware Approximate
03:21PM 32.1021 126.2830 255° West  Level FlightAware Approximate
03:22PM 32.0697 126.1378 255° West  Level FlightAware Approximate
03:23PM 32.0377 125.9926 256° West  Level FlightAware Approximate
03:24PM 32.0064 125.8472 256° West  Level FlightAware Approximate
03:25PM 31.9750 125.7019 256° West  Level FlightAware Approximate
03:26PM 31.9433 125.5567 256° West  Level FlightAware Approximate
03:27PM 31.9116 125.4116 256° West  Level FlightAware Approximate
03:28PM 31.8796 125.2666 255° West  Level FlightAware Approximate
03:29PM 31.8475 125.1217 255° West  Level FlightAware Approximate
03:30PM 31.8154 124.9769 257° West  Level FlightAware Approximate
03:31PM 31.7858 124.8314 257° West  Level FlightAware Approximate
03:32PM 31.7561 124.6859 257° West  Level FlightAware Approximate
03:33PM 31.7262 124.5406 256° West  Level FlightAware Approximate
03:34PM 31.6962 124.3953 256° West  Level FlightAware Approximate
03:35PM 31.6601 124.2521 251° West  Level FlightAware Approximate
03:36PM 31.6317 124.1068 259° West  Level FlightAware Approximate
03:37PM 31.5969 123.9648 259° West  Level FlightAware Approximate
03:38PM 31.5675 123.8197 254° West  Level FlightAware Approximate
03:39PM 31.5316 123.6765 254° West  Level FlightAware Approximate
03:40PM 31.5044 123.5311 261° West  Level FlightAware Approximate
03:41PM 31.4718 123.3871 254° West  Level FlightAware Approximate
03:42PM 31.4427 123.2420 257° West  Level FlightAware Approximate
03:43PM 31.4146 123.0967 257° West  Level FlightAware Approximate
03:44PM 31.3862 122.9514 257° West  Level FlightAware Approximate
03:45PM 31.3578 122.8062 257° West  Level FlightAware Approximate
03:46PM 31.3347 122.6599 261° West  Level FlightAware Approximate
03:47PM 31.3087 122.5142 258° West  Level FlightAware Approximate
03:48PM 31.2805 122.3690 257° West  Level FlightAware Approximate
03:49PM 31.2515 122.2242 257° West  Level FlightAware Approximate
03:50PM 31.2249 122.0787 258° West  Level FlightAware Approximate
03:51PM 31.1996 121.9333 180° South  Level FlightAware Approximate
03:52PM 31.1667 121.8056 270° West  Level FlightAware Approximate
03:53PM 31.1428 121.7924 157° South  Level Estimated
03:54PM 31.1428 121.7924 157° South  Level Estimated
03:55PM 31.1428 121.7924 157° South  Level Estimated
03:56PM 31.1428 121.7924 157° South  Level Estimated
03:57PM 31.1428 121.7924 157° South  Level Estimated
03:58PM 31.1428 121.7924 157° South  Level Estimated
03:59PM 31.1428 121.7924 157° South  Level Estimated
04:00PM 31.1428 121.7924 157° South  Level Estimated
04:01PM 31.1428 121.7924 157° South  Level Estimated
04:02PM 31.1428 121.7924 157° South  Level Estimated
04:03PM 31.1428 121.7924 157° South  Level Estimated
04:04PM 31.1428 121.7924 157° South  Level Estimated
04:05PM 31.1428 121.7924 157° South  Level Estimated
04:06PM 31.1428 121.7924 157° South  Level Estimated
04:07PM 31.1428 121.7924 157° South  Level Estimated